sensor_id;sensor_type;location;lat;lon;timestamp;temperature;humidity
35593;DHT22;64447;52.140;5.602;2023-12-28T00:02:07;10.30;99.90
35593;DHT22;64447;52.140;5.602;2023-12-28T00:04:33;10.30;99.90
35593;DHT22;64447;52.140;5.602;2023-12-28T00:07:02;10.50;99.90
35593;DHT22;64447;52.140;5.602;2023-12-28T00:09:27;10.50;99.90
35593;DHT22;64447;52.140;5.602;2023-12-28T00:11:53;10.40;99.90
35593;DHT22;64447;52.140;5.602;2023-12-28T00:14:19;10.30;99.90
35593;DHT22;64447;52.140;5.602;2023-12-28T00:16:44;10.30;99.90
35593;DHT22;64447;52.140;5.602;2023-12-28T00:19:10;10.40;99.90
35593;DHT22;64447;52.140;5.602;2023-12-28T00:21:36;10.30;99.90
35593;DHT22;64447;52.140;5.602;2023-12-28T00:24:02;10.30;99.90
35593;DHT22;64447;52.140;5.602;2023-12-28T00:26:27;10.30;99.90
35593;DHT22;64447;52.140;5.602;2023-12-28T00:28:54;10.40;99.90
35593;DHT22;64447;52.140;5.602;2023-12-28T00:31:19;10.40;99.90
35593;DHT22;64447;52.140;5.602;2023-12-28T00:33:45;10.30;99.90
35593;DHT22;64447;52.140;5.602;2023-12-28T00:36:11;10.40;99.90
35593;DHT22;64447;52.140;5.602;2023-12-28T00:38:36;10.30;99.90
35593;DHT22;64447;52.140;5.602;2023-12-28T00:41:02;10.40;99.90
35593;DHT22;64447;52.140;5.602;2023-12-28T00:43:27;10.40;99.90
35593;DHT22;64447;52.140;5.602;2023-12-28T00:45:53;10.40;99.90
35593;DHT22;64447;52.140;5.602;2023-12-28T00:48:19;10.50;99.90
35593;DHT22;64447;52.140;5.602;2023-12-28T00:50:44;10.40;99.90
35593;DHT22;64447;52.140;5.602;2023-12-28T00:53:10;10.50;99.90
35593;DHT22;64447;52.140;5.602;2023-12-28T00:55:35;10.40;99.90
35593;DHT22;64447;52.140;5.602;2023-12-28T00:58:01;10.40;99.90
35593;DHT22;64447;52.140;5.602;2023-12-28T01:00:27;10.30;99.90
35593;DHT22;64447;52.140;5.602;2023-12-28T01:02:54;10.30;99.90
35593;DHT22;64447;52.140;5.602;2023-12-28T01:05:19;10.30;99.90
35593;DHT22;64447;52.140;5.602;2023-12-28T01:07:46;10.30;99.90
35593;DHT22;64447;52.140;5.602;2023-12-28T01:10:12;10.30;99.90
35593;DHT22;64447;52.140;5.602;2023-12-28T01:12:37;10.30;99.90
35593;DHT22;64447;52.140;5.602;2023-12-28T01:15:03;10.30;99.90
35593;DHT22;64447;52.140;5.602;2023-12-28T01:17:29;10.30;99.90
35593;DHT22;64447;52.140;5.602;2023-12-28T01:19:54;10.30;99.90
35593;DHT22;64447;52.140;5.602;2023-12-28T01:22:20;10.30;99.90
35593;DHT22;64447;52.140;5.602;2023-12-28T01:24:46;10.20;99.90
35593;DHT22;64447;52.140;5.602;2023-12-28T01:27:12;10.20;99.90
35593;DHT22;64447;52.140;5.602;2023-12-28T01:29:38;10.10;99.90
35593;DHT22;64447;52.140;5.602;2023-12-28T01:32:04;10.10;99.90
35593;DHT22;64447;52.140;5.602;2023-12-28T01:34:29;10.10;99.90
35593;DHT22;64447;52.140;5.602;2023-12-28T01:36:55;10.10;99.90
35593;DHT22;64447;52.140;5.602;2023-12-28T01:39:21;10.10;99.90
35593;DHT22;64447;52.140;5.602;2023-12-28T01:41:46;10.10;99.90
35593;DHT22;64447;52.140;5.602;2023-12-28T01:44:12;10.10;99.90
35593;DHT22;64447;52.140;5.602;2023-12-28T01:46:38;10.10;99.90
35593;DHT22;64447;52.140;5.602;2023-12-28T01:49:04;10.00;99.90
35593;DHT22;64447;52.140;5.602;2023-12-28T01:51:31;10.00;99.90
35593;DHT22;64447;52.140;5.602;2023-12-28T01:53:57;10.00;99.90
35593;DHT22;64447;52.140;5.602;2023-12-28T01:56:23;9.90;99.90
35593;DHT22;64447;52.140;5.602;2023-12-28T01:58:50;10.00;99.90
35593;DHT22;64447;52.140;5.602;2023-12-28T02:01:18;10.00;99.90
35593;DHT22;64447;52.140;5.602;2023-12-28T02:03:44;10.00;99.90
35593;DHT22;64447;52.140;5.602;2023-12-28T02:06:10;10.00;99.90
35593;DHT22;64447;52.140;5.602;2023-12-28T02:08:37;9.90;99.90
35593;DHT22;64447;52.140;5.602;2023-12-28T02:11:03;10.00;99.90
35593;DHT22;64447;52.140;5.602;2023-12-28T02:13:29;10.00;99.90
35593;DHT22;64447;52.140;5.602;2023-12-28T02:16:01;10.00;99.90
35593;DHT22;64447;52.140;5.602;2023-12-28T02:18:33;10.00;99.90
35593;DHT22;64447;52.140;5.602;2023-12-28T02:21:02;9.90;99.90
35593;DHT22;64447;52.140;5.602;2023-12-28T02:23:28;9.90;99.90
35593;DHT22;64447;52.140;5.602;2023-12-28T02:25:53;10.00;99.90
35593;DHT22;64447;52.140;5.602;2023-12-28T02:28:19;9.90;99.90
35593;DHT22;64447;52.140;5.602;2023-12-28T02:30:45;10.00;99.90
35593;DHT22;64447;52.140;5.602;2023-12-28T02:33:18;10.00;99.90
35593;DHT22;64447;52.140;5.602;2023-12-28T02:36:04;9.90;99.90
35593;DHT22;64447;52.140;5.602;2023-12-28T02:38:33;10.00;99.90
35593;DHT22;64447;52.140;5.602;2023-12-28T02:41:02;10.00;99.90
35593;DHT22;64447;52.140;5.602;2023-12-28T02:43:28;10.00;99.90
35593;DHT22;64447;52.140;5.602;2023-12-28T02:45:54;9.90;99.90
35593;DHT22;64447;52.140;5.602;2023-12-28T02:48:20;10.00;99.90
35593;DHT22;64447;52.140;5.602;2023-12-28T02:50:46;9.90;99.90
35593;DHT22;64447;52.140;5.602;2023-12-28T02:53:12;10.00;99.90
35593;DHT22;64447;52.140;5.602;2023-12-28T02:55:38;10.10;99.90
35593;DHT22;64447;52.140;5.602;2023-12-28T02:58:04;10.00;99.90
35593;DHT22;64447;52.140;5.602;2023-12-28T03:00:30;10.10;99.90
35593;DHT22;64447;52.140;5.602;2023-12-28T03:02:56;10.10;99.90
35593;DHT22;64447;52.140;5.602;2023-12-28T03:05:23;10.10;99.90
35593;DHT22;64447;52.140;5.602;2023-12-28T03:07:48;10.10;99.90
35593;DHT22;64447;52.140;5.602;2023-12-28T03:10:14;10.10;99.90
35593;DHT22;64447;52.140;5.602;2023-12-28T03:12:40;10.10;99.90
35593;DHT22;64447;52.140;5.602;2023-12-28T03:15:06;10.10;99.90
35593;DHT22;64447;52.140;5.602;2023-12-28T03:17:32;10.10;99.90
35593;DHT22;64447;52.140;5.602;2023-12-28T03:20:01;10.20;99.90
35593;DHT22;64447;52.140;5.602;2023-12-28T03:22:27;10.20;99.90
35593;DHT22;64447;52.140;5.602;2023-12-28T03:24:52;10.20;99.90
35593;DHT22;64447;52.140;5.602;2023-12-28T03:27:18;10.20;99.90
35593;DHT22;64447;52.140;5.602;2023-12-28T03:29:44;10.20;99.90
35593;DHT22;64447;52.140;5.602;2023-12-28T03:32:09;10.20;99.90
35593;DHT22;64447;52.140;5.602;2023-12-28T03:34:35;10.20;99.90
35593;DHT22;64447;52.140;5.602;2023-12-28T03:37:02;10.20;99.90
35593;DHT22;64447;52.140;5.602;2023-12-28T03:39:27;10.30;99.90
35593;DHT22;64447;52.140;5.602;2023-12-28T03:41:53;10.30;99.90
35593;DHT22;64447;52.140;5.602;2023-12-28T03:44:20;10.40;99.90
35593;DHT22;64447;52.140;5.602;2023-12-28T03:46:47;10.40;99.90
35593;DHT22;64447;52.140;5.602;2023-12-28T03:49:19;10.40;99.90
35593;DHT22;64447;52.140;5.602;2023-12-28T03:51:45;10.40;99.90
35593;DHT22;64447;52.140;5.602;2023-12-28T03:54:11;10.40;99.90
35593;DHT22;64447;52.140;5.602;2023-12-28T03:56:37;10.50;99.90
35593;DHT22;64447;52.140;5.602;2023-12-28T03:59:06;10.40;99.90
35593;DHT22;64447;52.140;5.602;2023-12-28T04:01:32;10.40;99.90
35593;DHT22;64447;52.140;5.602;2023-12-28T04:03:58;10.50;99.90
35593;DHT22;64447;52.140;5.602;2023-12-28T04:06:23;10.50;99.90
35593;DHT22;64447;52.140;5.602;2023-12-28T04:08:49;10.40;99.90
35593;DHT22;64447;52.140;5.602;2023-12-28T04:11:15;10.50;99.90
35593;DHT22;64447;52.140;5.602;2023-12-28T04:13:40;10.50;99.90
35593;DHT22;64447;52.140;5.602;2023-12-28T04:16:06;10.50;99.90
35593;DHT22;64447;52.140;5.602;2023-12-28T04:18:32;10.40;99.90
35593;DHT22;64447;52.140;5.602;2023-12-28T04:20:58;10.40;99.90
35593;DHT22;64447;52.140;5.602;2023-12-28T04:23:24;10.40;99.90
35593;DHT22;64447;52.140;5.602;2023-12-28T04:25:50;10.50;99.90
35593;DHT22;64447;52.140;5.602;2023-12-28T04:28:15;10.40;99.90
35593;DHT22;64447;52.140;5.602;2023-12-28T04:30:41;10.40;99.90
35593;DHT22;64447;52.140;5.602;2023-12-28T04:33:07;10.40;99.90
35593;DHT22;64447;52.140;5.602;2023-12-28T04:35:33;10.40;99.90
35593;DHT22;64447;52.140;5.602;2023-12-28T04:37:58;10.40;99.90
35593;DHT22;64447;52.140;5.602;2023-12-28T04:40:24;10.30;99.90
35593;DHT22;64447;52.140;5.602;2023-12-28T04:42:49;10.30;99.90
35593;DHT22;64447;52.140;5.602;2023-12-28T04:45:15;10.40;99.90
35593;DHT22;64447;52.140;5.602;2023-12-28T04:47:41;10.30;99.90
35593;DHT22;64447;52.140;5.602;2023-12-28T04:50:07;10.40;99.90
35593;DHT22;64447;52.140;5.602;2023-12-28T04:52:32;10.40;99.90
35593;DHT22;64447;52.140;5.602;2023-12-28T04:54:58;10.40;99.90
35593;DHT22;64447;52.140;5.602;2023-12-28T04:57:24;10.40;99.90
35593;DHT22;64447;52.140;5.602;2023-12-28T04:59:51;10.40;99.90
35593;DHT22;64447;52.140;5.602;2023-12-28T05:02:17;10.40;99.90
35593;DHT22;64447;52.140;5.602;2023-12-28T05:04:42;10.40;99.90
35593;DHT22;64447;52.140;5.602;2023-12-28T05:07:08;10.40;99.90
35593;DHT22;64447;52.140;5.602;2023-12-28T05:09:34;10.40;99.90
35593;DHT22;64447;52.140;5.602;2023-12-28T05:12:00;10.40;99.90
35593;DHT22;64447;52.140;5.602;2023-12-28T05:14:25;10.40;99.90
35593;DHT22;64447;52.140;5.602;2023-12-28T05:16:51;10.10;99.90
35593;DHT22;64447;52.140;5.602;2023-12-28T05:19:17;10.50;99.90
35593;DHT22;64447;52.140;5.602;2023-12-28T05:21:42;10.50;99.90
35593;DHT22;64447;52.140;5.602;2023-12-28T05:24:08;10.50;99.90
35593;DHT22;64447;52.140;5.602;2023-12-28T05:26:34;10.50;99.90
35593;DHT22;64447;52.140;5.602;2023-12-28T05:29:00;10.60;99.90
35593;DHT22;64447;52.140;5.602;2023-12-28T05:31:26;10.60;99.90
35593;DHT22;64447;52.140;5.602;2023-12-28T05:33:51;10.60;99.90
35593;DHT22;64447;52.140;5.602;2023-12-28T05:36:17;10.60;99.90
35593;DHT22;64447;52.140;5.602;2023-12-28T05:38:43;10.70;99.90
35593;DHT22;64447;52.140;5.602;2023-12-28T05:41:11;10.60;99.90
35593;DHT22;64447;52.140;5.602;2023-12-28T05:43:37;10.60;99.90
35593;DHT22;64447;52.140;5.602;2023-12-28T05:46:04;10.60;99.90
35593;DHT22;64447;52.140;5.602;2023-12-28T05:48:29;10.70;99.90
35593;DHT22;64447;52.140;5.602;2023-12-28T05:50:57;10.70;99.90
35593;DHT22;64447;52.140;5.602;2023-12-28T05:53:24;10.70;99.90
35593;DHT22;64447;52.140;5.602;2023-12-28T05:55:49;10.80;99.90
35593;DHT22;64447;52.140;5.602;2023-12-28T05:58:15;10.80;99.90
35593;DHT22;64447;52.140;5.602;2023-12-28T06:00:41;10.80;99.90
35593;DHT22;64447;52.140;5.602;2023-12-28T06:03:07;10.80;99.90
35593;DHT22;64447;52.140;5.602;2023-12-28T06:05:33;10.80;99.90
35593;DHT22;64447;52.140;5.602;2023-12-28T06:07:58;10.80;99.90
35593;DHT22;64447;52.140;5.602;2023-12-28T06:10:24;10.80;99.90
35593;DHT22;64447;52.140;5.602;2023-12-28T06:12:50;10.90;99.90
35593;DHT22;64447;52.140;5.602;2023-12-28T06:15:16;10.90;99.90
35593;DHT22;64447;52.140;5.602;2023-12-28T06:17:42;10.90;99.90
35593;DHT22;64447;52.140;5.602;2023-12-28T06:20:08;10.90;99.90
35593;DHT22;64447;52.140;5.602;2023-12-28T06:22:37;10.90;99.90
35593;DHT22;64447;52.140;5.602;2023-12-28T06:25:03;10.90;99.90
35593;DHT22;64447;52.140;5.602;2023-12-28T06:27:29;10.90;99.90
35593;DHT22;64447;52.140;5.602;2023-12-28T06:29:55;11.00;99.90
35593;DHT22;64447;52.140;5.602;2023-12-28T06:32:20;11.00;99.90
35593;DHT22;64447;52.140;5.602;2023-12-28T06:34:46;11.00;99.90
35593;DHT22;64447;52.140;5.602;2023-12-28T06:37:12;11.00;99.90
35593;DHT22;64447;52.140;5.602;2023-12-28T06:39:39;11.00;99.90
35593;DHT22;64447;52.140;5.602;2023-12-28T06:42:04;11.00;99.90
35593;DHT22;64447;52.140;5.602;2023-12-28T06:44:30;11.00;99.90
35593;DHT22;64447;52.140;5.602;2023-12-28T06:46:55;11.00;99.90
35593;DHT22;64447;52.140;5.602;2023-12-28T06:49:21;11.00;99.90
35593;DHT22;64447;52.140;5.602;2023-12-28T06:51:47;11.00;99.90
35593;DHT22;64447;52.140;5.602;2023-12-28T06:54:13;11.00;99.90
35593;DHT22;64447;52.140;5.602;2023-12-28T06:56:40;11.00;99.90
35593;DHT22;64447;52.140;5.602;2023-12-28T06:59:06;11.00;99.90
35593;DHT22;64447;52.140;5.602;2023-12-28T07:01:31;11.00;99.90
35593;DHT22;64447;52.140;5.602;2023-12-28T07:03:57;11.00;99.90
35593;DHT22;64447;52.140;5.602;2023-12-28T07:06:24;11.00;99.90
35593;DHT22;64447;52.140;5.602;2023-12-28T07:08:50;11.00;99.90
35593;DHT22;64447;52.140;5.602;2023-12-28T07:11:16;11.00;99.90
35593;DHT22;64447;52.140;5.602;2023-12-28T07:13:42;11.00;99.90
35593;DHT22;64447;52.140;5.602;2023-12-28T07:16:07;11.00;99.90
35593;DHT22;64447;52.140;5.602;2023-12-28T07:18:33;11.00;99.90
35593;DHT22;64447;52.140;5.602;2023-12-28T07:20:59;10.90;99.90
35593;DHT22;64447;52.140;5.602;2023-12-28T07:23:25;10.90;99.90
35593;DHT22;64447;52.140;5.602;2023-12-28T07:25:51;11.00;99.90
35593;DHT22;64447;52.140;5.602;2023-12-28T07:28:17;11.00;99.90
35593;DHT22;64447;52.140;5.602;2023-12-28T07:30:42;11.00;99.90
35593;DHT22;64447;52.140;5.602;2023-12-28T07:33:08;10.90;99.90
35593;DHT22;64447;52.140;5.602;2023-12-28T07:35:34;11.00;99.90
35593;DHT22;64447;52.140;5.602;2023-12-28T07:38:00;11.00;99.90
35593;DHT22;64447;52.140;5.602;2023-12-28T07:40:26;10.90;99.90
35593;DHT22;64447;52.140;5.602;2023-12-28T07:42:52;10.90;99.90
35593;DHT22;64447;52.140;5.602;2023-12-28T07:45:17;10.80;99.90
35593;DHT22;64447;52.140;5.602;2023-12-28T07:47:49;10.80;99.90
35593;DHT22;64447;52.140;5.602;2023-12-28T07:50:15;10.80;99.90
35593;DHT22;64447;52.140;5.602;2023-12-28T07:52:42;10.80;99.90
35593;DHT22;64447;52.140;5.602;2023-12-28T07:55:08;10.70;99.90
35593;DHT22;64447;52.140;5.602;2023-12-28T07:57:34;10.70;99.90
35593;DHT22;64447;52.140;5.602;2023-12-28T08:00:00;10.80;99.90
35593;DHT22;64447;52.140;5.602;2023-12-28T08:02:26;10.70;99.90
35593;DHT22;64447;52.140;5.602;2023-12-28T08:04:53;10.70;99.90
35593;DHT22;64447;52.140;5.602;2023-12-28T08:07:18;10.80;99.90
35593;DHT22;64447;52.140;5.602;2023-12-28T08:09:44;10.80;99.90
35593;DHT22;64447;52.140;5.602;2023-12-28T08:12:10;10.80;99.90
35593;DHT22;64447;52.140;5.602;2023-12-28T08:14:35;10.80;99.90
35593;DHT22;64447;52.140;5.602;2023-12-28T08:17:01;10.80;99.90
35593;DHT22;64447;52.140;5.602;2023-12-28T08:19:27;10.80;99.90
35593;DHT22;64447;52.140;5.602;2023-12-28T08:21:52;10.80;99.90
35593;DHT22;64447;52.140;5.602;2023-12-28T08:24:22;10.80;99.90
35593;DHT22;64447;52.140;5.602;2023-12-28T08:26:47;10.80;99.90
35593;DHT22;64447;52.140;5.602;2023-12-28T08:29:13;10.90;99.90
35593;DHT22;64447;52.140;5.602;2023-12-28T08:31:39;10.80;99.90
35593;DHT22;64447;52.140;5.602;2023-12-28T08:34:04;10.90;99.90
35593;DHT22;64447;52.140;5.602;2023-12-28T08:36:30;10.90;99.90
35593;DHT22;64447;52.140;5.602;2023-12-28T08:38:56;11.00;99.90
35593;DHT22;64447;52.140;5.602;2023-12-28T08:41:22;11.00;99.90
35593;DHT22;64447;52.140;5.602;2023-12-28T08:43:52;11.00;99.90
35593;DHT22;64447;52.140;5.602;2023-12-28T08:46:21;11.00;99.90
35593;DHT22;64447;52.140;5.602;2023-12-28T08:48:47;11.00;99.90
35593;DHT22;64447;52.140;5.602;2023-12-28T08:51:12;11.00;99.90
35593;DHT22;64447;52.140;5.602;2023-12-28T08:53:40;11.00;99.90
35593;DHT22;64447;52.140;5.602;2023-12-28T08:56:26;11.00;99.90
35593;DHT22;64447;52.140;5.602;2023-12-28T08:58:52;11.00;99.90
35593;DHT22;64447;52.140;5.602;2023-12-28T09:01:20;11.20;99.90
35593;DHT22;64447;52.140;5.602;2023-12-28T09:03:48;11.10;99.90
35593;DHT22;64447;52.140;5.602;2023-12-28T09:06:15;11.10;99.90
35593;DHT22;64447;52.140;5.602;2023-12-28T09:08:42;11.10;99.90
35593;DHT22;64447;52.140;5.602;2023-12-28T09:11:10;11.20;99.90
35593;DHT22;64447;52.140;5.602;2023-12-28T09:13:36;11.10;99.90
35593;DHT22;64447;52.140;5.602;2023-12-28T09:16:02;11.20;99.90
35593;DHT22;64447;52.140;5.602;2023-12-28T09:18:27;11.10;99.90
35593;DHT22;64447;52.140;5.602;2023-12-28T09:20:53;11.10;99.90
35593;DHT22;64447;52.140;5.602;2023-12-28T09:23:18;11.10;99.90
35593;DHT22;64447;52.140;5.602;2023-12-28T09:25:44;11.10;99.90
35593;DHT22;64447;52.140;5.602;2023-12-28T09:28:10;11.10;99.90
35593;DHT22;64447;52.140;5.602;2023-12-28T09:30:35;11.10;99.90
35593;DHT22;64447;52.140;5.602;2023-12-28T09:33:01;11.10;99.90
35593;DHT22;64447;52.140;5.602;2023-12-28T09:35:26;11.10;99.90
35593;DHT22;64447;52.140;5.602;2023-12-28T09:37:52;11.10;99.90
35593;DHT22;64447;52.140;5.602;2023-12-28T09:40:18;11.20;99.90
35593;DHT22;64447;52.140;5.602;2023-12-28T09:42:51;11.10;99.90
35593;DHT22;64447;52.140;5.602;2023-12-28T09:45:19;11.20;99.90
35593;DHT22;64447;52.140;5.602;2023-12-28T09:47:46;11.20;99.90
35593;DHT22;64447;52.140;5.602;2023-12-28T09:50:14;11.20;99.90
35593;DHT22;64447;52.140;5.602;2023-12-28T09:52:42;11.20;99.90
35593;DHT22;64447;52.140;5.602;2023-12-28T09:55:08;11.30;99.90
35593;DHT22;64447;52.140;5.602;2023-12-28T09:57:35;11.30;99.90
35593;DHT22;64447;52.140;5.602;2023-12-28T10:00:01;11.40;99.90
35593;DHT22;64447;52.140;5.602;2023-12-28T10:02:28;11.40;99.90
35593;DHT22;64447;52.140;5.602;2023-12-28T10:04:54;11.40;99.90
35593;DHT22;64447;52.140;5.602;2023-12-28T10:07:20;11.40;99.90
35593;DHT22;64447;52.140;5.602;2023-12-28T10:09:45;11.40;99.90
35593;DHT22;64447;52.140;5.602;2023-12-28T10:12:11;11.40;99.90
35593;DHT22;64447;52.140;5.602;2023-12-28T10:14:37;11.40;99.90
35593;DHT22;64447;52.140;5.602;2023-12-28T10:17:02;11.40;99.90
35593;DHT22;64447;52.140;5.602;2023-12-28T10:19:28;11.40;99.90
35593;DHT22;64447;52.140;5.602;2023-12-28T10:21:54;11.40;99.90
35593;DHT22;64447;52.140;5.602;2023-12-28T10:24:19;11.40;99.90
35593;DHT22;64447;52.140;5.602;2023-12-28T10:26:46;11.40;99.90
35593;DHT22;64447;52.140;5.602;2023-12-28T10:29:12;11.40;99.90
35593;DHT22;64447;52.140;5.602;2023-12-28T10:31:42;11.30;99.90
35593;DHT22;64447;52.140;5.602;2023-12-28T10:34:08;11.40;99.90
35593;DHT22;64447;52.140;5.602;2023-12-28T10:36:34;11.50;99.90
35593;DHT22;64447;52.140;5.602;2023-12-28T10:39:03;11.50;99.90
35593;DHT22;64447;52.140;5.602;2023-12-28T10:41:30;11.50;99.90
35593;DHT22;64447;52.140;5.602;2023-12-28T10:44:03;11.50;99.90
35593;DHT22;64447;52.140;5.602;2023-12-28T10:46:31;11.50;99.90
35593;DHT22;64447;52.140;5.602;2023-12-28T10:49:05;11.60;99.90
35593;DHT22;64447;52.140;5.602;2023-12-28T10:51:34;11.70;99.90
35593;DHT22;64447;52.140;5.602;2023-12-28T10:57:28;11.70;99.90
35593;DHT22;64447;52.140;5.602;2023-12-28T11:00:15;11.70;99.90
35593;DHT22;64447;52.140;5.602;2023-12-28T11:02:45;11.70;99.90
35593;DHT22;64447;52.140;5.602;2023-12-28T11:05:15;11.70;99.90
35593;DHT22;64447;52.140;5.602;2023-12-28T11:07:43;11.70;99.90
35593;DHT22;64447;52.140;5.602;2023-12-28T11:10:09;11.70;99.90
35593;DHT22;64447;52.140;5.602;2023-12-28T11:12:37;11.80;99.90
35593;DHT22;64447;52.140;5.602;2023-12-28T11:15:05;11.90;99.90
35593;DHT22;64447;52.140;5.602;2023-12-28T11:17:31;11.80;99.90
35593;DHT22;64447;52.140;5.602;2023-12-28T11:19:57;11.70;99.90
35593;DHT22;64447;52.140;5.602;2023-12-28T11:22:24;11.70;99.90
35593;DHT22;64447;52.140;5.602;2023-12-28T11:24:53;11.70;99.90
35593;DHT22;64447;52.140;5.602;2023-12-28T11:27:19;11.80;99.90
35593;DHT22;64447;52.140;5.602;2023-12-28T11:29:48;11.80;99.90
35593;DHT22;64447;52.140;5.602;2023-12-28T11:32:13;11.70;99.90
35593;DHT22;64447;52.140;5.602;2023-12-28T11:34:39;11.70;99.90
35593;DHT22;64447;52.140;5.602;2023-12-28T11:37:07;11.80;99.90
35593;DHT22;64447;52.140;5.602;2023-12-28T11:39:37;11.80;99.90
35593;DHT22;64447;52.140;5.602;2023-12-28T11:42:09;11.80;99.90
35593;DHT22;64447;52.140;5.602;2023-12-28T11:44:42;11.70;99.90
35593;DHT22;64447;52.140;5.602;2023-12-28T11:49:38;11.70;99.90
35593;DHT22;64447;52.140;5.602;2023-12-28T11:52:06;11.70;99.90
35593;DHT22;64447;52.140;5.602;2023-12-28T11:54:32;11.60;99.90
35593;DHT22;64447;52.140;5.602;2023-12-28T11:56:58;11.70;99.90
35593;DHT22;64447;52.140;5.602;2023-12-28T11:59:23;11.70;99.90
35593;DHT22;64447;52.140;5.602;2023-12-28T12:01:50;11.70;99.90
35593;DHT22;64447;52.140;5.602;2023-12-28T12:04:20;11.70;99.90
35593;DHT22;64447;52.140;5.602;2023-12-28T12:06:46;11.70;99.90
35593;DHT22;64447;52.140;5.602;2023-12-28T12:09:16;11.70;99.90
35593;DHT22;64447;52.140;5.602;2023-12-28T12:11:45;11.70;99.90
35593;DHT22;64447;52.140;5.602;2023-12-28T12:14:11;11.70;99.90
35593;DHT22;64447;52.140;5.602;2023-12-28T12:16:37;11.80;99.90
35593;DHT22;64447;52.140;5.602;2023-12-28T12:19:06;11.90;99.90
35593;DHT22;64447;52.140;5.602;2023-12-28T12:21:34;11.80;99.90
35593;DHT22;64447;52.140;5.602;2023-12-28T12:24:00;11.80;99.90
35593;DHT22;64447;52.140;5.602;2023-12-28T12:26:27;11.90;99.90
35593;DHT22;64447;52.140;5.602;2023-12-28T12:28:53;11.90;99.90
35593;DHT22;64447;52.140;5.602;2023-12-28T12:31:19;11.90;99.90
35593;DHT22;64447;52.140;5.602;2023-12-28T12:33:45;11.90;99.90
35593;DHT22;64447;52.140;5.602;2023-12-28T12:36:11;11.90;99.90
35593;DHT22;64447;52.140;5.602;2023-12-28T12:38:36;11.90;99.90
35593;DHT22;64447;52.140;5.602;2023-12-28T12:41:02;11.90;99.90
35593;DHT22;64447;52.140;5.602;2023-12-28T12:43:28;12.00;99.90
35593;DHT22;64447;52.140;5.602;2023-12-28T12:45:54;11.90;99.90
35593;DHT22;64447;52.140;5.602;2023-12-28T12:48:20;11.90;99.90
35593;DHT22;64447;52.140;5.602;2023-12-28T12:50:46;11.90;99.90
35593;DHT22;64447;52.140;5.602;2023-12-28T12:53:11;11.90;99.90
35593;DHT22;64447;52.140;5.602;2023-12-28T12:55:37;11.90;99.90
35593;DHT22;64447;52.140;5.602;2023-12-28T12:58:11;12.00;99.90
35593;DHT22;64447;52.140;5.602;2023-12-28T13:00:41;12.00;99.90
35593;DHT22;64447;52.140;5.602;2023-12-28T13:03:09;11.90;99.90
35593;DHT22;64447;52.140;5.602;2023-12-28T13:05:36;11.90;99.90
35593;DHT22;64447;52.140;5.602;2023-12-28T13:08:03;11.80;99.90
35593;DHT22;64447;52.140;5.602;2023-12-28T13:10:29;11.80;99.90
35593;DHT22;64447;52.140;5.602;2023-12-28T13:12:55;11.70;99.90
35593;DHT22;64447;52.140;5.602;2023-12-28T13:15:20;11.70;99.90
35593;DHT22;64447;52.140;5.602;2023-12-28T13:17:46;11.70;99.90
35593;DHT22;64447;52.140;5.602;2023-12-28T13:20:12;11.70;99.90
35593;DHT22;64447;52.140;5.602;2023-12-28T13:22:37;11.70;99.90
35593;DHT22;64447;52.140;5.602;2023-12-28T13:25:03;11.70;99.90
35593;DHT22;64447;52.140;5.602;2023-12-28T13:27:29;11.70;99.90
35593;DHT22;64447;52.140;5.602;2023-12-28T13:29:56;11.60;99.90
35593;DHT22;64447;52.140;5.602;2023-12-28T13:32:22;11.70;99.90
35593;DHT22;64447;52.140;5.602;2023-12-28T13:34:49;11.60;99.90
35593;DHT22;64447;52.140;5.602;2023-12-28T13:37:16;11.60;99.90
35593;DHT22;64447;52.140;5.602;2023-12-28T13:39:42;11.70;99.90
35593;DHT22;64447;52.140;5.602;2023-12-28T13:42:08;11.60;99.90
35593;DHT22;64447;52.140;5.602;2023-12-28T13:44:34;11.70;99.90
35593;DHT22;64447;52.140;5.602;2023-12-28T13:47:01;11.70;99.90
35593;DHT22;64447;52.140;5.602;2023-12-28T13:49:26;11.70;99.90
35593;DHT22;64447;52.140;5.602;2023-12-28T13:51:52;11.70;99.90
35593;DHT22;64447;52.140;5.602;2023-12-28T13:54:18;11.60;99.90
35593;DHT22;64447;52.140;5.602;2023-12-28T13:56:47;11.60;99.90
35593;DHT22;64447;52.140;5.602;2023-12-28T13:59:13;11.70;99.90
35593;DHT22;64447;52.140;5.602;2023-12-28T14:01:39;11.70;99.90
35593;DHT22;64447;52.140;5.602;2023-12-28T14:04:05;11.70;99.90
35593;DHT22;64447;52.140;5.602;2023-12-28T14:06:31;11.70;99.90
35593;DHT22;64447;52.140;5.602;2023-12-28T14:08:57;11.70;99.90
35593;DHT22;64447;52.140;5.602;2023-12-28T14:11:24;11.70;99.90
35593;DHT22;64447;52.140;5.602;2023-12-28T14:13:50;11.60;99.90
35593;DHT22;64447;52.140;5.602;2023-12-28T14:16:15;11.70;99.90
35593;DHT22;64447;52.140;5.602;2023-12-28T14:18:41;11.70;99.90
35593;DHT22;64447;52.140;5.602;2023-12-28T14:21:11;11.70;99.90
35593;DHT22;64447;52.140;5.602;2023-12-28T14:23:38;11.60;99.90
35593;DHT22;64447;52.140;5.602;2023-12-28T14:26:13;11.60;99.90
35593;DHT22;64447;52.140;5.602;2023-12-28T14:28:43;11.60;99.90
35593;DHT22;64447;52.140;5.602;2023-12-28T14:31:10;11.60;99.90
35593;DHT22;64447;52.140;5.602;2023-12-28T14:33:37;11.50;99.90
35593;DHT22;64447;52.140;5.602;2023-12-28T14:36:07;11.50;99.90
35593;DHT22;64447;52.140;5.602;2023-12-28T14:38:34;11.50;99.90
35593;DHT22;64447;52.140;5.602;2023-12-28T14:41:00;11.50;99.90
35593;DHT22;64447;52.140;5.602;2023-12-28T14:43:25;11.50;99.90
35593;DHT22;64447;52.140;5.602;2023-12-28T14:45:51;11.40;99.90
35593;DHT22;64447;52.140;5.602;2023-12-28T14:48:18;11.20;99.90
35593;DHT22;64447;52.140;5.602;2023-12-28T14:50:44;11.00;99.90
35593;DHT22;64447;52.140;5.602;2023-12-28T14:53:10;10.90;99.90
35593;DHT22;64447;52.140;5.602;2023-12-28T14:55:35;10.90;99.90
35593;DHT22;64447;52.140;5.602;2023-12-28T14:58:01;10.90;99.90
35593;DHT22;64447;52.140;5.602;2023-12-28T15:00:27;10.90;99.90
35593;DHT22;64447;52.140;5.602;2023-12-28T15:02:53;10.90;99.90
35593;DHT22;64447;52.140;5.602;2023-12-28T15:05:18;10.90;99.90
35593;DHT22;64447;52.140;5.602;2023-12-28T15:07:44;10.90;99.90
35593;DHT22;64447;52.140;5.602;2023-12-28T15:10:10;10.90;99.90
35593;DHT22;64447;52.140;5.602;2023-12-28T15:12:36;10.90;99.90
35593;DHT22;64447;52.140;5.602;2023-12-28T15:15:03;10.90;99.90
35593;DHT22;64447;52.140;5.602;2023-12-28T15:17:29;11.00;99.90
35593;DHT22;64447;52.140;5.602;2023-12-28T15:19:54;11.00;99.90
35593;DHT22;64447;52.140;5.602;2023-12-28T15:22:20;10.90;99.90
35593;DHT22;64447;52.140;5.602;2023-12-28T15:24:46;10.90;99.90
35593;DHT22;64447;52.140;5.602;2023-12-28T15:27:12;11.00;99.90
35593;DHT22;64447;52.140;5.602;2023-12-28T15:29:38;11.00;99.90
35593;DHT22;64447;52.140;5.602;2023-12-28T15:32:04;11.00;99.90